sensor_id;sensor_type;location;lat;lon;timestamp;P1;durP1;ratioP1;P2;durP2;ratioP2
22963;SDS011;11648;49.306;6.934;2022-11-27T00:01:23;19.13;;;8.80;;
22963;SDS011;11648;49.306;6.934;2022-11-27T00:03:52;26.60;;;9.03;;
22963;SDS011;11648;49.306;6.934;2022-11-27T00:06:20;21.53;;;9.77;;
22963;SDS011;11648;49.306;6.934;2022-11-27T00:08:48;20.73;;;9.20;;
22963;SDS011;11648;49.306;6.934;2022-11-27T00:11:19;27.83;;;8.43;;
22963;SDS011;11648;49.306;6.934;2022-11-27T00:13:47;17.73;;;8.50;;
22963;SDS011;11648;49.306;6.934;2022-11-27T00:16:15;17.10;;;8.87;;
22963;SDS011;11648;49.306;6.934;2022-11-27T00:18:42;17.00;;;8.50;;
22963;SDS011;11648;49.306;6.934;2022-11-27T00:21:13;16.30;;;9.37;;
22963;SDS011;11648;49.306;6.934;2022-11-27T00:23:43;17.40;;;8.67;;
22963;SDS011;11648;49.306;6.934;2022-11-27T00:26:10;19.70;;;8.50;;
22963;SDS011;11648;49.306;6.934;2022-11-27T00:28:37;20.33;;;8.97;;
22963;SDS011;11648;49.306;6.934;2022-11-27T00:31:05;21.37;;;9.10;;
22963;SDS011;11648;49.306;6.934;2022-11-27T00:33:42;18.03;;;9.20;;
22963;SDS011;11648;49.306;6.934;2022-11-27T00:36:10;16.07;;;8.60;;
22963;SDS011;11648;49.306;6.934;2022-11-27T00:38:38;15.93;;;8.47;;
22963;SDS011;11648;49.306;6.934;2022-11-27T00:41:10;16.27;;;8.90;;
22963;SDS011;11648;49.306;6.934;2022-11-27T00:43:42;16.13;;;9.13;;
22963;SDS011;11648;49.306;6.934;2022-11-27T00:46:11;19.70;;;8.60;;
22963;SDS011;11648;49.306;6.934;2022-11-27T00:48:39;15.40;;;7.93;;
22963;SDS011;11648;49.306;6.934;2022-11-27T00:51:07;18.33;;;8.97;;
22963;SDS011;11648;49.306;6.934;2022-11-27T00:53:35;16.73;;;8.63;;
22963;SDS011;11648;49.306;6.934;2022-11-27T00:56:02;20.33;;;9.53;;
22963;SDS011;11648;49.306;6.934;2022-11-27T00:58:29;22.40;;;8.60;;
22963;SDS011;11648;49.306;6.934;2022-11-27T01:01:00;15.73;;;8.80;;
22963;SDS011;11648;49.306;6.934;2022-11-27T01:03:29;21.33;;;9.30;;
22963;SDS011;11648;49.306;6.934;2022-11-27T01:06:00;19.83;;;9.53;;
22963;SDS011;11648;49.306;6.934;2022-11-27T01:08:29;18.40;;;9.07;;
22963;SDS011;11648;49.306;6.934;2022-11-27T01:10:57;17.50;;;8.87;;
22963;SDS011;11648;49.306;6.934;2022-11-27T01:13:28;20.80;;;9.20;;
22963;SDS011;11648;49.306;6.934;2022-11-27T01:18:29;20.77;;;9.43;;
22963;SDS011;11648;49.306;6.934;2022-11-27T01:20:55;20.80;;;8.97;;
22963;SDS011;11648;49.306;6.934;2022-11-27T01:23:22;18.03;;;8.77;;
22963;SDS011;11648;49.306;6.934;2022-11-27T01:25:49;20.87;;;9.30;;
22963;SDS011;11648;49.306;6.934;2022-11-27T01:28:19;19.10;;;9.03;;
22963;SDS011;11648;49.306;6.934;2022-11-27T01:30:47;18.80;;;9.60;;
22963;SDS011;11648;49.306;6.934;2022-11-27T01:33:14;20.47;;;9.13;;
22963;SDS011;11648;49.306;6.934;2022-11-27T01:35:41;20.60;;;9.77;;
22963;SDS011;11648;49.306;6.934;2022-11-27T01:38:09;19.67;;;9.33;;
22963;SDS011;11648;49.306;6.934;2022-11-27T01:40:36;22.07;;;10.00;;
22963;SDS011;11648;49.306;6.934;2022-11-27T01:43:02;18.23;;;9.20;;
22963;SDS011;11648;49.306;6.934;2022-11-27T01:45:31;20.87;;;9.27;;
22963;SDS011;11648;49.306;6.934;2022-11-27T01:47:59;17.13;;;8.70;;
22963;SDS011;11648;49.306;6.934;2022-11-27T01:50:29;19.20;;;9.17;;
22963;SDS011;11648;49.306;6.934;2022-11-27T01:53:08;20.83;;;9.20;;
22963;SDS011;11648;49.306;6.934;2022-11-27T01:55:41;21.30;;;9.20;;
22963;SDS011;11648;49.306;6.934;2022-11-27T01:58:13;19.83;;;9.23;;
22963;SDS011;11648;49.306;6.934;2022-11-27T02:00:43;23.13;;;8.60;;
22963;SDS011;11648;49.306;6.934;2022-11-27T02:03:10;18.70;;;9.27;;
22963;SDS011;11648;49.306;6.934;2022-11-27T02:05:37;21.00;;;9.77;;
22963;SDS011;11648;49.306;6.934;2022-11-27T02:08:08;21.27;;;8.87;;
22963;SDS011;11648;49.306;6.934;2022-11-27T02:13:53;19.60;;;9.10;;
22963;SDS011;11648;49.306;6.934;2022-11-27T02:19:13;16.67;;;8.63;;
22963;SDS011;11648;49.306;6.934;2022-11-27T02:30:43;15.40;;;8.13;;
22963;SDS011;11648;49.306;6.934;2022-11-27T02:33:15;16.67;;;8.33;;
22963;SDS011;11648;49.306;6.934;2022-11-27T02:38:20;18.43;;;9.10;;
22963;SDS011;11648;49.306;6.934;2022-11-27T02:41:08;16.40;;;9.00;;
22963;SDS011;11648;49.306;6.934;2022-11-27T02:43:41;20.03;;;8.97;;
22963;SDS011;11648;49.306;6.934;2022-11-27T02:46:13;19.93;;;9.77;;
22963;SDS011;11648;49.306;6.934;2022-11-27T02:48:46;18.10;;;9.00;;
22963;SDS011;11648;49.306;6.934;2022-11-27T02:51:16;19.10;;;9.37;;
22963;SDS011;11648;49.306;6.934;2022-11-27T02:53:49;17.70;;;9.47;;
22963;SDS011;11648;49.306;6.934;2022-11-27T02:56:21;18.57;;;9.60;;
22963;SDS011;11648;49.306;6.934;2022-11-27T02:58:51;19.20;;;9.43;;
22963;SDS011;11648;49.306;6.934;2022-11-27T03:01:22;19.73;;;10.20;;
22963;SDS011;11648;49.306;6.934;2022-11-27T03:03:51;17.73;;;9.20;;
22963;SDS011;11648;49.306;6.934;2022-11-27T03:06:23;17.03;;;8.80;;
22963;SDS011;11648;49.306;6.934;2022-11-27T03:09:05;17.27;;;8.17;;
22963;SDS011;11648;49.306;6.934;2022-11-27T03:11:46;16.87;;;8.43;;
22963;SDS011;11648;49.306;6.934;2022-11-27T03:14:13;15.80;;;8.30;;
22963;SDS011;11648;49.306;6.934;2022-11-27T03:22:11;16.87;;;8.90;;
22963;SDS011;11648;49.306;6.934;2022-11-27T03:24:38;17.63;;;9.50;;
22963;SDS011;11648;49.306;6.934;2022-11-27T03:27:05;18.07;;;9.03;;
22963;SDS011;11648;49.306;6.934;2022-11-27T03:29:51;18.93;;;8.90;;
22963;SDS011;11648;49.306;6.934;2022-11-27T03:32:25;14.50;;;8.27;;
22963;SDS011;11648;49.306;6.934;2022-11-27T03:34:52;16.30;;;9.07;;
22963;SDS011;11648;49.306;6.934;2022-11-27T03:37:20;14.73;;;7.50;;
22963;SDS011;11648;49.306;6.934;2022-11-27T03:39:48;13.43;;;7.23;;
22963;SDS011;11648;49.306;6.934;2022-11-27T03:56:00;13.43;;;7.13;;
22963;SDS011;11648;49.306;6.934;2022-11-27T03:59:08;13.07;;;6.90;;
22963;SDS011;11648;49.306;6.934;2022-11-27T04:01:40;12.13;;;7.00;;
22963;SDS011;11648;49.306;6.934;2022-11-27T04:04:07;11.87;;;6.40;;
22963;SDS011;11648;49.306;6.934;2022-11-27T04:06:34;11.97;;;6.93;;
22963;SDS011;11648;49.306;6.934;2022-11-27T04:09:00;15.60;;;6.80;;
22963;SDS011;11648;49.306;6.934;2022-11-27T04:11:27;12.10;;;7.10;;
22963;SDS011;11648;49.306;6.934;2022-11-27T04:13:54;11.70;;;6.67;;
22963;SDS011;11648;49.306;6.934;2022-11-27T04:16:21;14.87;;;6.97;;
22963;SDS011;11648;49.306;6.934;2022-11-27T04:18:48;11.27;;;6.27;;
22963;SDS011;11648;49.306;6.934;2022-11-27T04:21:14;11.57;;;6.27;;
22963;SDS011;11648;49.306;6.934;2022-11-27T04:23:42;11.20;;;6.30;;
22963;SDS011;11648;49.306;6.934;2022-11-27T04:26:09;13.20;;;6.90;;
22963;SDS011;11648;49.306;6.934;2022-11-27T04:28:36;10.40;;;5.97;;
22963;SDS011;11648;49.306;6.934;2022-11-27T04:31:03;11.37;;;6.50;;
22963;SDS011;11648;49.306;6.934;2022-11-27T04:33:30;10.07;;;6.23;;
22963;SDS011;11648;49.306;6.934;2022-11-27T04:35:57;10.53;;;5.90;;
22963;SDS011;11648;49.306;6.934;2022-11-27T04:38:23;9.87;;;5.60;;
22963;SDS011;11648;49.306;6.934;2022-11-27T04:40:50;10.43;;;6.67;;
22963;SDS011;11648;49.306;6.934;2022-11-27T04:43:18;12.40;;;6.30;;
22963;SDS011;11648;49.306;6.934;2022-11-27T04:45:46;11.37;;;6.80;;
22963;SDS011;11648;49.306;6.934;2022-11-27T04:48:12;12.67;;;6.57;;
22963;SDS011;11648;49.306;6.934;2022-11-27T04:50:39;11.77;;;7.00;;
22963;SDS011;11648;49.306;6.934;2022-11-27T04:53:06;14.30;;;6.93;;
22963;SDS011;11648;49.306;6.934;2022-11-27T04:55:33;11.87;;;6.37;;
22963;SDS011;11648;49.306;6.934;2022-11-27T04:58:00;11.50;;;6.40;;
22963;SDS011;11648;49.306;6.934;2022-11-27T05:00:27;10.23;;;6.10;;
22963;SDS011;11648;49.306;6.934;2022-11-27T05:02:54;9.63;;;5.63;;
22963;SDS011;11648;49.306;6.934;2022-11-27T05:05:21;9.47;;;5.50;;
22963;SDS011;11648;49.306;6.934;2022-11-27T05:07:47;9.70;;;5.97;;
22963;SDS011;11648;49.306;6.934;2022-11-27T05:10:14;10.00;;;5.37;;
22963;SDS011;11648;49.306;6.934;2022-11-27T05:12:41;11.00;;;5.87;;
22963;SDS011;11648;49.306;6.934;2022-11-27T05:15:08;11.07;;;6.30;;
22963;SDS011;11648;49.306;6.934;2022-11-27T05:17:35;11.80;;;6.37;;
22963;SDS011;11648;49.306;6.934;2022-11-27T05:20:01;11.40;;;6.50;;
22963;SDS011;11648;49.306;6.934;2022-11-27T05:22:29;11.87;;;6.30;;
22963;SDS011;11648;49.306;6.934;2022-11-27T05:24:55;10.67;;;6.40;;
22963;SDS011;11648;49.306;6.934;2022-11-27T05:27:22;12.37;;;6.60;;
22963;SDS011;11648;49.306;6.934;2022-11-27T05:29:49;11.20;;;6.57;;
22963;SDS011;11648;49.306;6.934;2022-11-27T05:32:15;12.73;;;7.37;;
22963;SDS011;11648;49.306;6.934;2022-11-27T05:34:42;14.13;;;7.50;;
22963;SDS011;11648;49.306;6.934;2022-11-27T05:37:09;13.13;;;7.43;;
22963;SDS011;11648;49.306;6.934;2022-11-27T05:39:44;12.67;;;7.33;;
22963;SDS011;11648;49.306;6.934;2022-11-27T05:42:11;13.03;;;6.10;;
22963;SDS011;11648;49.306;6.934;2022-11-27T05:44:37;12.13;;;6.33;;
22963;SDS011;11648;49.306;6.934;2022-11-27T05:47:04;10.90;;;6.70;;
22963;SDS011;11648;49.306;6.934;2022-11-27T05:49:31;10.63;;;6.67;;
22963;SDS011;11648;49.306;6.934;2022-11-27T05:51:58;11.53;;;7.07;;
22963;SDS011;11648;49.306;6.934;2022-11-27T05:54:25;11.83;;;7.20;;
22963;SDS011;11648;49.306;6.934;2022-11-27T05:56:51;10.20;;;6.67;;
22963;SDS011;11648;49.306;6.934;2022-11-27T05:59:18;10.43;;;5.97;;
22963;SDS011;11648;49.306;6.934;2022-11-27T06:01:45;11.40;;;6.23;;
22963;SDS011;11648;49.306;6.934;2022-11-27T06:04:12;12.87;;;6.70;;
22963;SDS011;11648;49.306;6.934;2022-11-27T06:06:39;11.27;;;6.83;;
22963;SDS011;11648;49.306;6.934;2022-11-27T06:09:05;13.13;;;7.17;;
22963;SDS011;11648;49.306;6.934;2022-11-27T06:11:38;11.67;;;6.70;;
22963;SDS011;11648;49.306;6.934;2022-11-27T06:14:06;8.93;;;6.03;;
22963;SDS011;11648;49.306;6.934;2022-11-27T06:16:34;12.40;;;7.47;;
22963;SDS011;11648;49.306;6.934;2022-11-27T06:19:01;11.87;;;7.23;;
22963;SDS011;11648;49.306;6.934;2022-11-27T06:21:28;12.00;;;7.20;;
22963;SDS011;11648;49.306;6.934;2022-11-27T06:23:55;11.03;;;6.90;;
22963;SDS011;11648;49.306;6.934;2022-11-27T06:26:25;12.83;;;6.87;;
22963;SDS011;11648;49.306;6.934;2022-11-27T06:28:54;10.53;;;6.23;;
22963;SDS011;11648;49.306;6.934;2022-11-27T06:31:23;12.10;;;6.97;;
22963;SDS011;11648;49.306;6.934;2022-11-27T06:33:52;11.97;;;7.10;;
22963;SDS011;11648;49.306;6.934;2022-11-27T06:36:20;11.90;;;7.50;;
22963;SDS011;11648;49.306;6.934;2022-11-27T06:38:47;12.87;;;7.97;;
22963;SDS011;11648;49.306;6.934;2022-11-27T06:41:15;15.00;;;8.40;;
22963;SDS011;11648;49.306;6.934;2022-11-27T06:43:44;12.67;;;8.27;;
22963;SDS011;11648;49.306;6.934;2022-11-27T06:46:11;12.70;;;7.87;;
22963;SDS011;11648;49.306;6.934;2022-11-27T06:48:44;11.53;;;7.43;;
22963;SDS011;11648;49.306;6.934;2022-11-27T06:51:15;13.17;;;7.43;;
22963;SDS011;11648;49.306;6.934;2022-11-27T06:53:43;11.57;;;7.60;;
22963;SDS011;11648;49.306;6.934;2022-11-27T06:56:11;12.63;;;8.17;;
22963;SDS011;11648;49.306;6.934;2022-11-27T06:58:39;13.63;;;8.37;;
22963;SDS011;11648;49.306;6.934;2022-11-27T07:01:09;13.30;;;7.80;;
22963;SDS011;11648;49.306;6.934;2022-11-27T07:03:40;13.10;;;8.40;;
22963;SDS011;11648;49.306;6.934;2022-11-27T07:06:08;14.30;;;8.10;;
22963;SDS011;11648;49.306;6.934;2022-11-27T07:08:36;13.90;;;7.67;;
22963;SDS011;11648;49.306;6.934;2022-11-27T07:11:04;12.67;;;7.90;;
22963;SDS011;11648;49.306;6.934;2022-11-27T07:13:33;15.07;;;8.33;;
22963;SDS011;11648;49.306;6.934;2022-11-27T07:16:00;13.17;;;7.83;;
22963;SDS011;11648;49.306;6.934;2022-11-27T07:18:29;18.17;;;9.27;;
22963;SDS011;11648;49.306;6.934;2022-11-27T07:20:59;16.17;;;8.93;;
22963;SDS011;11648;49.306;6.934;2022-11-27T07:23:26;16.87;;;8.77;;
22963;SDS011;11648;49.306;6.934;2022-11-27T07:25:52;16.73;;;9.03;;
22963;SDS011;11648;49.306;6.934;2022-11-27T07:28:19;16.70;;;8.73;;
22963;SDS011;11648;49.306;6.934;2022-11-27T07:30:55;16.73;;;8.90;;
22963;SDS011;11648;49.306;6.934;2022-11-27T07:33:23;18.03;;;9.87;;
22963;SDS011;11648;49.306;6.934;2022-11-27T07:38:48;18.37;;;8.67;;
22963;SDS011;11648;49.306;6.934;2022-11-27T07:41:15;20.63;;;10.67;;
22963;SDS011;11648;49.306;6.934;2022-11-27T07:43:43;18.10;;;9.87;;
22963;SDS011;11648;49.306;6.934;2022-11-27T07:46:14;16.00;;;9.23;;
22963;SDS011;11648;49.306;6.934;2022-11-27T07:48:43;19.77;;;9.37;;
22963;SDS011;11648;49.306;6.934;2022-11-27T07:51:10;17.30;;;9.60;;
22963;SDS011;11648;49.306;6.934;2022-11-27T07:53:40;19.27;;;10.70;;
22963;SDS011;11648;49.306;6.934;2022-11-27T07:56:08;44.80;;;23.13;;
22963;SDS011;11648;49.306;6.934;2022-11-27T07:58:36;21.93;;;12.00;;
22963;SDS011;11648;49.306;6.934;2022-11-27T08:01:07;20.50;;;10.90;;
22963;SDS011;11648;49.306;6.934;2022-11-27T08:03:35;18.47;;;10.73;;
22963;SDS011;11648;49.306;6.934;2022-11-27T08:06:03;22.73;;;11.10;;
22963;SDS011;11648;49.306;6.934;2022-11-27T08:08:30;19.73;;;10.73;;
22963;SDS011;11648;49.306;6.934;2022-11-27T08:10:57;22.10;;;11.30;;
22963;SDS011;11648;49.306;6.934;2022-11-27T08:13:24;23.53;;;11.47;;
22963;SDS011;11648;49.306;6.934;2022-11-27T08:15:50;18.30;;;9.53;;
22963;SDS011;11648;49.306;6.934;2022-11-27T08:18:17;18.97;;;9.67;;
22963;SDS011;11648;49.306;6.934;2022-11-27T08:20:44;21.63;;;10.97;;
22963;SDS011;11648;49.306;6.934;2022-11-27T08:23:10;20.20;;;10.60;;
22963;SDS011;11648;49.306;6.934;2022-11-27T08:25:37;17.93;;;10.37;;
22963;SDS011;11648;49.306;6.934;2022-11-27T08:28:04;16.73;;;9.50;;
22963;SDS011;11648;49.306;6.934;2022-11-27T08:30:30;23.50;;;10.73;;
22963;SDS011;11648;49.306;6.934;2022-11-27T08:32:57;18.63;;;10.10;;
22963;SDS011;11648;49.306;6.934;2022-11-27T08:35:24;20.47;;;11.03;;
22963;SDS011;11648;49.306;6.934;2022-11-27T08:37:51;20.30;;;11.13;;
22963;SDS011;11648;49.306;6.934;2022-11-27T08:40:18;19.00;;;9.93;;
22963;SDS011;11648;49.306;6.934;2022-11-27T08:42:44;18.60;;;10.13;;
22963;SDS011;11648;49.306;6.934;2022-11-27T08:45:11;18.13;;;9.37;;
22963;SDS011;11648;49.306;6.934;2022-11-27T08:47:38;17.83;;;9.80;;
22963;SDS011;11648;49.306;6.934;2022-11-27T08:50:05;17.70;;;9.87;;
22963;SDS011;11648;49.306;6.934;2022-11-27T08:52:32;21.17;;;11.03;;
22963;SDS011;11648;49.306;6.934;2022-11-27T08:54:59;19.97;;;11.13;;
22963;SDS011;11648;49.306;6.934;2022-11-27T08:57:26;18.67;;;10.23;;
22963;SDS011;11648;49.306;6.934;2022-11-27T08:59:52;15.57;;;9.87;;
22963;SDS011;11648;49.306;6.934;2022-11-27T09:02:19;18.10;;;10.43;;
22963;SDS011;11648;49.306;6.934;2022-11-27T09:04:46;17.57;;;9.87;;
22963;SDS011;11648;49.306;6.934;2022-11-27T09:07:14;15.83;;;9.77;;
22963;SDS011;11648;49.306;6.934;2022-11-27T09:09:41;19.33;;;10.40;;
22963;SDS011;11648;49.306;6.934;2022-11-27T09:12:08;17.57;;;9.93;;
22963;SDS011;11648;49.306;6.934;2022-11-27T09:14:35;19.70;;;10.30;;
22963;SDS011;11648;49.306;6.934;2022-11-27T09:17:02;17.43;;;10.10;;
22963;SDS011;11648;49.306;6.934;2022-11-27T09:19:28;17.27;;;10.10;;
22963;SDS011;11648;49.306;6.934;2022-11-27T09:21:55;17.57;;;9.63;;
22963;SDS011;11648;49.306;6.934;2022-11-27T09:24:22;19.90;;;10.47;;
22963;SDS011;11648;49.306;6.934;2022-11-27T09:26:50;16.40;;;9.73;;
22963;SDS011;11648;49.306;6.934;2022-11-27T09:29:16;18.50;;;9.90;;
22963;SDS011;11648;49.306;6.934;2022-11-27T09:31:43;16.80;;;9.80;;
22963;SDS011;11648;49.306;6.934;2022-11-27T09:34:10;16.37;;;9.30;;
22963;SDS011;11648;49.306;6.934;2022-11-27T09:36:37;16.47;;;9.17;;
22963;SDS011;11648;49.306;6.934;2022-11-27T09:39:03;17.00;;;9.50;;
22963;SDS011;11648;49.306;6.934;2022-11-27T09:44:53;18.33;;;10.83;;
22963;SDS011;11648;49.306;6.934;2022-11-27T09:46:57;15.83;;;9.87;;
22963;SDS011;11648;49.306;6.934;2022-11-27T09:54:49;15.90;;;9.37;;
22963;SDS011;11648;49.306;6.934;2022-11-27T09:57:24;17.10;;;10.27;;
22963;SDS011;11648;49.306;6.934;2022-11-27T10:00:06;18.77;;;10.27;;
22963;SDS011;11648;49.306;6.934;2022-11-27T10:02:40;19.53;;;10.67;;
22963;SDS011;11648;49.306;6.934;2022-11-27T10:16:18;15.57;;;8.50;;
22963;SDS011;11648;49.306;6.934;2022-11-27T10:18:56;14.30;;;8.33;;
22963;SDS011;11648;49.306;6.934;2022-11-27T10:21:34;15.80;;;9.27;;
22963;SDS011;11648;49.306;6.934;2022-11-27T10:26:39;23.13;;;11.50;;
22963;SDS011;11648;49.306;6.934;2022-11-27T10:29:24;17.33;;;9.43;;
22963;SDS011;11648;49.306;6.934;2022-11-27T10:32:12;14.27;;;8.93;;
22963;SDS011;11648;49.306;6.934;2022-11-27T10:35:02;15.57;;;9.13;;
22963;SDS011;11648;49.306;6.934;2022-11-27T10:37:42;14.43;;;8.77;;
22963;SDS011;11648;49.306;6.934;2022-11-27T10:42:44;13.70;;;8.43;;
22963;SDS011;11648;49.306;6.934;2022-11-27T10:45:41;13.50;;;8.27;;
22963;SDS011;11648;49.306;6.934;2022-11-27T10:48:14;12.90;;;7.40;;
22963;SDS011;11648;49.306;6.934;2022-11-27T10:50:41;11.33;;;7.37;;
22963;SDS011;11648;49.306;6.934;2022-11-27T11:01:21;15.87;;;8.30;;
22963;SDS011;11648;49.306;6.934;2022-11-27T11:03:49;13.10;;;7.57;;
22963;SDS011;11648;49.306;6.934;2022-11-27T11:06:24;11.70;;;7.40;;
22963;SDS011;11648;49.306;6.934;2022-11-27T11:11:46;13.20;;;7.70;;
22963;SDS011;11648;49.306;6.934;2022-11-27T11:14:15;11.83;;;7.27;;
22963;SDS011;11648;49.306;6.934;2022-11-27T11:16:44;10.97;;;7.30;;
22963;SDS011;11648;49.306;6.934;2022-11-27T11:19:31;11.33;;;6.73;;
22963;SDS011;11648;49.306;6.934;2022-11-27T11:22:04;11.63;;;7.53;;
22963;SDS011;11648;49.306;6.934;2022-11-27T11:24:52;12.13;;;7.03;;
22963;SDS011;11648;49.306;6.934;2022-11-27T11:30:00;11.23;;;7.13;;
22963;SDS011;11648;49.306;6.934;2022-11-27T11:32:34;13.47;;;6.77;;
22963;SDS011;11648;49.306;6.934;2022-11-27T11:35:04;12.80;;;7.53;;
22963;SDS011;11648;49.306;6.934;2022-11-27T11:37:37;11.00;;;7.50;;
22963;SDS011;11648;49.306;6.934;2022-11-27T11:43:21;11.83;;;6.97;;
22963;SDS011;11648;49.306;6.934;2022-11-27T11:46:15;12.83;;;7.40;;
22963;SDS011;11648;49.306;6.934;2022-11-27T11:48:56;10.80;;;6.87;;
22963;SDS011;11648;49.306;6.934;2022-11-27T11:51:35;10.67;;;6.30;;
22963;SDS011;11648;49.306;6.934;2022-11-27T11:56:48;11.03;;;6.77;;
22963;SDS011;11648;49.306;6.934;2022-11-27T12:10:52;9.17;;;6.37;;
22963;SDS011;11648;49.306;6.934;2022-11-27T12:13:43;9.00;;;6.70;;
22963;SDS011;11648;49.306;6.934;2022-11-27T12:22:18;9.53;;;6.57;;
22963;SDS011;11648;49.306;6.934;2022-11-27T12:30:54;11.40;;;6.73;;
22963;SDS011;11648;49.306;6.934;2022-11-27T12:36:44;10.00;;;6.30;;
22963;SDS011;11648;49.306;6.934;2022-11-27T12:42:06;10.10;;;6.60;;
22963;SDS011;11648;49.306;6.934;2022-11-27T12:50:31;9.90;;;6.03;;
22963;SDS011;11648;49.306;6.934;2022-11-27T12:53:14;9.50;;;5.83;;
22963;SDS011;11648;49.306;6.934;2022-11-27T12:58:51;10.13;;;6.10;;
22963;SDS011;11648;49.306;6.934;2022-11-27T13:01:24;9.90;;;6.80;;
22963;SDS011;11648;49.306;6.934;2022-11-27T13:04:09;10.13;;;6.07;;
22963;SDS011;11648;49.306;6.934;2022-11-27T13:06:52;11.43;;;6.17;;
22963;SDS011;11648;49.306;6.934;2022-11-27T13:12:33;9.37;;;6.27;;
22963;SDS011;11648;49.306;6.934;2022-11-27T13:15:07;9.20;;;5.63;;
22963;SDS011;11648;49.306;6.934;2022-11-27T13:17:48;9.57;;;5.87;;
22963;SDS011;11648;49.306;6.934;2022-11-27T13:20:23;8.33;;;5.37;;
22963;SDS011;11648;49.306;6.934;2022-11-27T13:22:58;7.40;;;4.70;;
22963;SDS011;11648;49.306;6.934;2022-11-27T13:25:24;8.00;;;4.50;;
22963;SDS011;11648;49.306;6.934;2022-11-27T13:27:53;8.20;;;5.00;;
22963;SDS011;11648;49.306;6.934;2022-11-27T13:30:22;7.87;;;4.67;;
22963;SDS011;11648;49.306;6.934;2022-11-27T13:32:57;6.83;;;4.80;;
22963;SDS011;11648;49.306;6.934;2022-11-27T13:35:28;9.73;;;4.70;;
22963;SDS011;11648;49.306;6.934;2022-11-27T13:38:07;8.60;;;4.90;;
22963;SDS011;11648;49.306;6.934;2022-11-27T13:40:40;8.83;;;5.43;;
22963;SDS011;11648;49.306;6.934;2022-11-27T13:46:04;11.03;;;5.83;;
22963;SDS011;11648;49.306;6.934;2022-11-27T13:51:02;10.50;;;6.47;;
22963;SDS011;11648;49.306;6.934;2022-11-27T13:53:32;10.50;;;6.33;;
22963;SDS011;11648;49.306;6.934;2022-11-27T13:56:02;11.33;;;6.60;;
22963;SDS011;11648;49.306;6.934;2022-11-27T13:58:31;11.60;;;7.03;;
22963;SDS011;11648;49.306;6.934;2022-11-27T14:01:10;10.33;;;6.50;;
22963;SDS011;11648;49.306;6.934;2022-11-27T14:03:42;10.97;;;6.80;;
22963;SDS011;11648;49.306;6.934;2022-11-27T14:06:14;9.87;;;6.47;;
22963;SDS011;11648;49.306;6.934;2022-11-27T14:08:53;11.93;;;6.67;;
22963;SDS011;11648;49.306;6.934;2022-11-27T14:11:33;11.83;;;6.60;;
22963;SDS011;11648;49.306;6.934;2022-11-27T14:16:54;10.53;;;6.30;;
22963;SDS011;11648;49.306;6.934;2022-11-27T14:19:25;11.27;;;6.40;;
22963;SDS011;11648;49.306;6.934;2022-11-27T14:22:01;11.23;;;6.20;;
22963;SDS011;11648;49.306;6.934;2022-11-27T14:24:39;10.20;;;6.57;;
22963;SDS011;11648;49.306;6.934;2022-11-27T14:27:18;10.37;;;5.83;;
22963;SDS011;11648;49.306;6.934;2022-11-27T14:29:46;13.03;;;7.27;;
22963;SDS011;11648;49.306;6.934;2022-11-27T14:32:14;10.93;;;6.93;;
22963;SDS011;11648;49.306;6.934;2022-11-27T14:34:42;9.67;;;7.00;;
22963;SDS011;11648;49.306;6.934;2022-11-27T14:37:23;11.57;;;6.53;;
22963;SDS011;11648;49.306;6.934;2022-11-27T14:39:51;10.07;;;6.47;;
22963;SDS011;11648;49.306;6.934;2022-11-27T14:42:22;12.37;;;6.23;;
22963;SDS011;11648;49.306;6.934;2022-11-27T14:47:32;9.80;;;6.03;;
22963;SDS011;11648;49.306;6.934;2022-11-27T14:50:00;9.87;;;6.27;;
22963;SDS011;11648;49.306;6.934;2022-11-27T14:52:28;10.37;;;6.10;;
22963;SDS011;11648;49.306;6.934;2022-11-27T14:54:56;10.03;;;6.40;;
22963;SDS011;11648;49.306;6.934;2022-11-27T14:57:24;11.73;;;6.27;;
22963;SDS011;11648;49.306;6.934;2022-11-27T15:02:41;11.13;;;6.57;;
22963;SDS011;11648;49.306;6.934;2022-11-27T15:05:48;10.57;;;6.53;;
22963;SDS011;11648;49.306;6.934;2022-11-27T15:08:03;10.83;;;6.63;;
22963;SDS011;11648;49.306;6.934;2022-11-27T15:10:38;10.67;;;6.57;;
22963;SDS011;11648;49.306;6.934;2022-11-27T15:13:07;10.10;;;6.07;;
22963;SDS011;11648;49.306;6.934;2022-11-27T15:15:51;12.93;;;6.37;;
22963;SDS011;11648;49.306;6.934;2022-11-27T15:18:21;10.43;;;6.13;;
22963;SDS011;11648;49.306;6.934;2022-11-27T15:20:50;9.77;;;6.30;;
22963;SDS011;11648;49.306;6.934;2022-11-27T15:28:28;10.10;;;5.90;;
22963;SDS011;11648;49.306;6.934;2022-11-27T15:31:01;8.20;;;5.20;;
22963;SDS011;11648;49.306;6.934;2022-11-27T15:34:21;10.73;;;5.10;;
22963;SDS011;11648;49.306;6.934;2022-11-27T15:36:44;7.53;;;4.83;;
22963;SDS011;11648;49.306;6.934;2022-11-27T15:41:53;10.37;;;5.63;;
22963;SDS011;11648;49.306;6.934;2022-11-27T15:44:27;9.70;;;5.17;;
22963;SDS011;11648;49.306;6.934;2022-11-27T15:46:56;8.17;;;5.50;;
22963;SDS011;11648;49.306;6.934;2022-11-27T15:49:25;8.17;;;5.20;;
22963;SDS011;11648;49.306;6.934;2022-11-27T15:51:53;11.07;;;5.50;;
22963;SDS011;11648;49.306;6.934;2022-11-27T15:54:21;10.00;;;6.03;;
22963;SDS011;11648;49.306;6.934;2022-11-27T15:56:49;9.63;;;5.80;;
22963;SDS011;11648;49.306;6.934;2022-11-27T15:59:16;8.13;;;5.10;;
22963;SDS011;11648;49.306;6.934;2022-11-27T16:01:45;10.33;;;5.77;;
22963;SDS011;11648;49.306;6.934;2022-11-27T16:04:13;10.23;;;6.30;;
22963;SDS011;11648;49.306;6.934;2022-11-27T16:06:39;10.50;;;6.47;;
22963;SDS011;11648;49.306;6.934;2022-11-27T16:09:06;9.80;;;6.13;;
22963;SDS011;11648;49.306;6.934;2022-11-27T16:11:33;9.70;;;5.83;;
22963;SDS011;11648;49.306;6.934;2022-11-27T16:13:59;10.10;;;6.00;;
22963;SDS011;11648;49.306;6.934;2022-11-27T16:16:27;11.17;;;6.00;;
22963;SDS011;11648;49.306;6.934;2022-11-27T16:18:58;9.20;;;6.00;;
22963;SDS011;11648;49.306;6.934;2022-11-27T16:21:26;11.37;;;7.80;;
22963;SDS011;11648;49.306;6.934;2022-11-27T16:24:00;10.33;;;6.43;;
22963;SDS011;11648;49.306;6.934;2022-11-27T16:26:28;9.43;;;5.73;;
22963;SDS011;11648;49.306;6.934;2022-11-27T16:28:56;11.43;;;6.80;;
22963;SDS011;11648;49.306;6.934;2022-11-27T16:31:23;10.53;;;6.83;;
22963;SDS011;11648;49.306;6.934;2022-11-27T16:33:51;11.53;;;7.20;;
22963;SDS011;11648;49.306;6.934;2022-11-27T16:36:21;11.87;;;7.20;;
22963;SDS011;11648;49.306;6.934;2022-11-27T16:38:50;10.23;;;7.00;;
22963;SDS011;11648;49.306;6.934;2022-11-27T16:41:18;9.63;;;7.00;;
22963;SDS011;11648;49.306;6.934;2022-11-27T16:43:47;10.80;;;7.10;;
22963;SDS011;11648;49.306;6.934;2022-11-27T16:46:21;9.87;;;6.37;;
22963;SDS011;11648;49.306;6.934;2022-11-27T16:48:52;11.37;;;6.60;;
22963;SDS011;11648;49.306;6.934;2022-11-27T16:51:21;11.37;;;6.13;;
22963;SDS011;11648;49.306;6.934;2022-11-27T16:53:52;13.70;;;8.00;;
22963;SDS011;11648;49.306;6.934;2022-11-27T16:56:22;18.53;;;10.47;;
22963;SDS011;11648;49.306;6.934;2022-11-27T16:58:52;12.77;;;8.63;;
22963;SDS011;11648;49.306;6.934;2022-11-27T17:01:30;15.87;;;10.40;;
22963;SDS011;11648;49.306;6.934;2022-11-27T17:04:01;15.60;;;9.30;;
22963;SDS011;11648;49.306;6.934;2022-11-27T17:06:30;11.27;;;7.83;;
22963;SDS011;11648;49.306;6.934;2022-11-27T17:08:58;10.83;;;7.47;;
22963;SDS011;11648;49.306;6.934;2022-11-27T17:11:28;10.30;;;7.53;;
22963;SDS011;11648;49.306;6.934;2022-11-27T17:13:59;12.33;;;6.67;;
22963;SDS011;11648;49.306;6.934;2022-11-27T17:16:28;11.80;;;6.57;;
22963;SDS011;11648;49.306;6.934;2022-11-27T17:18:56;10.57;;;7.87;;
22963;SDS011;11648;49.306;6.934;2022-11-27T17:21:25;10.27;;;7.50;;
22963;SDS011;11648;49.306;6.934;2022-11-27T17:23:54;9.83;;;7.03;;